Time;durP1;ratioP1;P1;durP2;ratioP2;P2;SDS_P1;SDS_P2;PMS_P1;PMS_P2;Temp;Humidity;BMP_temperature;BMP_pressure;BME280_temperature;BME280_humidity;BME280_pressure;Samples;Min_cycle;Max_cycle;Signal;HPM_P1;HPM_P2
2023/03/26 00:01:18;;;;;;;3.58;3.22;;;;;;;;;;4999815;28;20174;-65
2023/03/26 00:03:52;;;;;;;3.63;3.08;;;;;;;;;;4999725;28;20520;-65
2023/03/26 00:06:19;;;;;;;4.45;2.78;;;;;;;;;;4999758;28;20110;-66
2023/03/26 00:08:45;;;;;;;4.25;3.25;;;;;;;;;;4982122;28;20365;-66
2023/03/26 00:11:15;;;;;;;3.43;3.10;;;;;;;;;;4982420;28;20069;-67
2023/03/26 00:13:42;;;;;;;4.65;3.20;;;;;;;;;;4999735;28;20732;-66
2023/03/26 00:16:09;;;;;;;2.88;2.65;;;;;;;;;;4999655;28;20026;-66
2023/03/26 00:18:35;;;;;;;4.25;3.05;;;;;;;;;;4999665;28;20095;-67
2023/03/26 00:21:02;;;;;;;3.83;2.78;;;;;;;;;;5014691;28;20461;-67
2023/03/26 00:23:28;;;;;;;4.82;3.30;;;;;;;;;;4981942;28;20401;-67
2023/03/26 00:25:54;;;;;;;3.70;3.20;;;;;;;;;;4982300;28;20037;-67
2023/03/26 00:28:20;;;;;;;5.63;2.83;;;;;;;;;;4999469;28;20034;-66
2023/03/26 00:30:46;;;;;;;3.60;2.88;;;;;;;;;;4999272;28;20026;-66
2023/03/26 00:33:16;;;;;;;4.05;3.10;;;;;;;;;;4999344;28;20156;-66
2023/03/26 00:35:42;;;;;;;3.75;3.20;;;;;;;;;;4981579;28;20046;-66
2023/03/26 00:38:07;;;;;;;3.13;2.83;;;;;;;;;;4999099;28;20050;-66
2023/03/26 00:40:35;;;;;;;3.88;3.00;;;;;;;;;;4965580;28;20030;-66
2023/03/26 00:43:08;;;;;;;3.17;2.70;;;;;;;;;;4981739;28;20039;-67
2023/03/26 00:45:34;;;;;;;3.35;2.65;;;;;;;;;;4999232;28;20034;-66
2023/03/26 00:47:59;;;;;;;3.63;2.40;;;;;;;;;;4999105;28;20033;-68
2023/03/26 00:50:25;;;;;;;3.15;2.38;;;;;;;;;;4999257;28;20026;-63
2023/03/26 00:52:50;;;;;;;3.22;2.58;;;;;;;;;;5028774;23;20062;-68
2023/03/26 00:55:16;;;;;;;2.85;2.30;;;;;;;;;;4999140;28;20065;-68
2023/03/26 00:57:44;;;;;;;4.07;2.53;;;;;;;;;;4978139;28;20121;-68
2023/03/26 01:00:14;;;;;;;3.60;2.28;;;;;;;;;;4996241;28;20022;-67
2023/03/26 01:02:39;;;;;;;2.67;2.28;;;;;;;;;;4978647;28;20077;-66
2023/03/26 01:05:41;;;;;;;3.75;2.35;;;;;;;;;;4995903;28;20050;-67
2023/03/26 01:08:25;;;;;;;3.97;2.50;;;;;;;;;;4996153;28;20449;-67
2023/03/26 01:11:01;;;;;;;3.22;2.20;;;;;;;;;;4995791;28;20045;-67
2023/03/26 01:13:27;;;;;;;2.22;2.00;;;;;;;;;;4995753;28;20039;-68
2023/03/26 01:15:52;;;;;;;2.70;2.10;;;;;;;;;;4994412;28;20045;-67
2023/03/26 01:18:25;;;;;;;2.88;2.08;;;;;;;;;;4995625;28;20474;-67
2023/03/26 01:20:51;;;;;;;2.67;2.40;;;;;;;;;;4978078;28;20026;-67
2023/03/26 01:23:20;;;;;;;2.90;2.60;;;;;;;;;;4995473;28;20076;-67
2023/03/26 01:25:49;;;;;;;3.05;2.13;;;;;;;;;;4978107;28;20022;-67
2023/03/26 01:28:16;;;;;;;3.22;2.42;;;;;;;;;;4995672;28;20022;-67
2023/03/26 01:31:05;;;;;;;2.45;2.25;;;;;;;;;;4995626;28;20030;-67
2023/03/26 01:33:35;;;;;;;3.75;2.30;;;;;;;;;;4977855;28;20035;-67
2023/03/26 01:36:09;;;;;;;2.85;2.33;;;;;;;;;;4961811;28;20038;-66
2023/03/26 01:38:54;;;;;;;2.17;1.95;;;;;;;;;;4978095;28;20030;-67
2023/03/26 01:41:43;;;;;;;2.28;1.88;;;;;;;;;;4995391;28;20101;-66
2023/03/26 01:44:27;;;;;;;1.98;1.80;;;;;;;;;;4977773;28;20035;-66
2023/03/26 01:46:53;;;;;;;2.15;1.92;;;;;;;;;;4995275;28;20027;-66
2023/03/26 01:49:19;;;;;;;2.15;1.88;;;;;;;;;;4995238;28;20033;-63
2023/03/26 01:51:46;;;;;;;2.08;1.80;;;;;;;;;;4977480;28;20034;-62
2023/03/26 01:54:20;;;;;;;2.40;2.10;;;;;;;;;;4995388;28;20038;-63
2023/03/26 01:56:45;;;;;;;2.20;2.00;;;;;;;;;;4977563;28;20035;-64
2023/03/26 01:59:10;;;;;;;2.20;2.00;;;;;;;;;;4995158;28;20023;-63
2023/03/26 02:01:56;;;;;;;3.22;2.10;;;;;;;;;;4994969;28;20120;-64
2023/03/26 02:04:40;;;;;;;1.90;1.70;;;;;;;;;;4977597;28;20035;-63
2023/03/26 02:07:09;;;;;;;3.50;2.05;;;;;;;;;;4994926;28;20030;-63
2023/03/26 02:09:40;;;;;;;2.45;2.08;;;;;;;;;;4985218;28;20031;-63
2023/03/26 02:12:07;;;;;;;2.92;2.50;;;;;;;;;;4970019;28;20042;-63
2023/03/26 02:14:33;;;;;;;2.83;2.58;;;;;;;;;;4977460;28;20025;-63
2023/03/26 02:16:59;;;;;;;3.67;2.70;;;;;;;;;;4977054;28;20030;-61
2023/03/26 02:19:25;;;;;;;2.90;2.70;;;;;;;;;;4994644;28;20081;-63
2023/03/26 02:21:50;;;;;;;3.15;2.83;;;;;;;;;;4994409;28;20501;-63
2023/03/26 02:24:17;;;;;;;3.58;3.25;;;;;;;;;;4960912;28;20108;-63
2023/03/26 02:26:42;;;;;;;2.63;2.30;;;;;;;;;;4976898;28;20031;-63
2023/03/26 02:29:09;;;;;;;2.90;2.70;;;;;;;;;;4976976;28;20042;-63
2023/03/26 02:31:36;;;;;;;2.65;2.45;;;;;;;;;;4960936;28;20077;-62
2023/03/26 02:34:01;;;;;;;2.85;2.65;;;;;;;;;;4994234;28;20030;-62
2023/03/26 02:36:30;;;;;;;2.50;2.30;;;;;;;;;;4994176;28;20097;-63
2023/03/26 02:39:01;;;;;;;2.47;2.17;;;;;;;;;;4994272;28;20058;-62
2023/03/26 02:41:29;;;;;;;;;;;;;;;;;;4977064;28;20062;-63
2023/03/26 02:43:59;;;;;;;2.97;2.67;;;;;;;;;;4961041;28;19956;-62
2023/03/26 02:46:44;;;;;;;3.33;2.85;;;;;;;;;;4979346;28;20066;-63
2023/03/26 02:49:33;;;;;;;2.80;2.60;;;;;;;;;;4993764;28;20121;-63
2023/03/26 02:51:59;;;;;;;3.22;2.92;;;;;;;;;;4973152;28;20074;-63
2023/03/26 02:54:25;;;;;;;3.20;2.92;;;;;;;;;;4973300;28;20023;-63
2023/03/26 02:57:01;;;;;;;3.00;2.70;;;;;;;;;;4973391;28;20058;-63
2023/03/26 02:59:35;;;;;;;2.95;2.67;;;;;;;;;;4974466;28;20046;-63
2023/03/26 03:02:23;;;;;;;2.92;2.72;;;;;;;;;;4963182;28;20487;-63
2023/03/26 03:04:50;;;;;;;3.38;3.03;;;;;;;;;;4956873;28;20037;-63
2023/03/26 03:07:16;;;;;;;4.70;2.88;;;;;;;;;;4973247;28;20030;-62
2023/03/26 03:09:41;;;;;;;2.50;2.30;;;;;;;;;;4972928;28;20019;-62
2023/03/26 03:12:25;;;;;;;3.03;2.53;;;;;;;;;;4973639;28;20124;-63
2023/03/26 03:14:51;;;;;;;2.50;2.30;;;;;;;;;;4974169;28;20054;-63
2023/03/26 03:17:19;;;;;;;3.22;2.10;;;;;;;;;;4973042;28;20031;-68
2023/03/26 03:19:45;;;;;;;3.80;2.72;;;;;;;;;;4972624;28;20031;-63
2023/03/26 03:22:10;;;;;;;2.58;2.38;;;;;;;;;;4972826;28;20045;-62
2023/03/26 03:24:37;;;;;;;3.15;2.35;;;;;;;;;;4972722;28;20058;-63
2023/03/26 03:27:05;;;;;;;2.60;2.40;;;;;;;;;;4972739;28;20150;-63
2023/03/26 03:29:32;;;;;;;2.20;2.00;;;;;;;;;;4973095;28;20066;-67
2023/03/26 03:32:15;;;;;;;2.17;1.95;;;;;;;;;;4973807;28;20445;-63
2023/03/26 03:34:44;;;;;;;2.58;1.80;;;;;;;;;;4972857;28;20082;-62
2023/03/26 03:37:10;;;;;;;2.75;2.28;;;;;;;;;;4956511;28;20471;-63
2023/03/26 03:39:47;;;;;;;1.98;1.77;;;;;;;;;;4972433;28;20427;-63
2023/03/26 03:42:17;;;;;;;2.65;1.90;;;;;;;;;;4972460;28;20483;-63
2023/03/26 03:44:42;;;;;;;2.03;1.75;;;;;;;;;;4972367;28;20130;-63
2023/03/26 03:47:21;;;;;;;2.67;2.20;;;;;;;;;;4957987;28;20407;-63
2023/03/26 03:49:47;;;;;;;2.33;1.83;;;;;;;;;;4972330;28;20045;-63
2023/03/26 03:52:13;;;;;;;2.10;1.88;;;;;;;;;;4972329;28;20459;-63
2023/03/26 03:54:40;;;;;;;2.30;2.10;;;;;;;;;;4972324;28;20390;-62
2023/03/26 03:57:17;;;;;;;3.78;2.40;;;;;;;;;;4973668;28;20031;-63
2023/03/26 03:59:59;;;;;;;2.47;1.65;;;;;;;;;;4972689;28;20027;-62
2023/03/26 04:02:33;;;;;;;2.60;2.28;;;;;;;;;;4973454;28;20049;-62
2023/03/26 04:05:01;;;;;;;2.25;2.05;;;;;;;;;;4972394;28;20487;-62
2023/03/26 04:07:29;;;;;;;2.28;2.00;;;;;;;;;;4972457;28;20444;-62
2023/03/26 04:10:05;;;;;;;3.95;2.50;;;;;;;;;;4973622;28;20035;-62
2023/03/26 04:12:49;;;;;;;3.30;2.45;;;;;;;;;;4973752;28;20458;-63
2023/03/26 04:15:16;;;;;;;3.38;2.72;;;;;;;;;;4972483;28;20444;-63
2023/03/26 04:17:44;;;;;;;3.28;2.53;;;;;;;;;;4972410;28;20027;-62
2023/03/26 04:20:14;;;;;;;2.58;2.38;;;;;;;;;;4972355;28;20042;-63
2023/03/26 04:22:43;;;;;;;3.47;2.78;;;;;;;;;;4972103;28;20566;-64
2023/03/26 04:25:11;;;;;;;2.80;2.60;;;;;;;;;;4956163;28;20502;-63
2023/03/26 04:27:50;;;;;;;3.10;2.80;;;;;;;;;;4972180;28;20026;-63
2023/03/26 04:30:26;;;;;;;3.30;2.95;;;;;;;;;;4957240;28;20306;-63
2023/03/26 04:33:14;;;;;;;4.28;2.95;;;;;;;;;;4975267;28;20039;-63
2023/03/26 04:35:43;;;;;;;3.33;3.00;;;;;;;;;;4975648;28;20026;-63
2023/03/26 04:38:10;;;;;;;3.95;3.03;;;;;;;;;;4975678;28;20101;-63
2023/03/26 04:40:38;;;;;;;3.85;3.17;;;;;;;;;;4975679;28;20018;-63
2023/03/26 04:43:17;;;;;;;5.47;3.50;;;;;;;;;;4975559;28;20023;-63
2023/03/26 04:46:02;;;;;;;5.25;3.70;;;;;;;;;;4975808;28;20454;-63
2023/03/26 04:48:29;;;;;;;4.47;3.15;;;;;;;;;;4975548;28;20031;-63
2023/03/26 04:50:55;;;;;;;4.07;3.33;;;;;;;;;;4975375;28;20491;-63
2023/03/26 04:53:23;;;;;;;4.82;3.22;;;;;;;;;;4975239;28;20043;-63
2023/03/26 04:55:57;;;;;;;3.85;3.47;;;;;;;;;;4976891;28;20047;-63
2023/03/26 04:58:42;;;;;;;4.88;3.70;;;;;;;;;;4976645;28;20556;-63
2023/03/26 05:01:09;;;;;;;7.00;3.95;;;;;;;;;;4975291;28;20114;-63
2023/03/26 05:03:39;;;;;;;3.95;3.42;;;;;;;;;;4975108;28;20035;-62
2023/03/26 05:06:09;;;;;;;4.97;3.58;;;;;;;;;;4959420;28;20022;-63
2023/03/26 05:08:35;;;;;;;4.43;4.03;;;;;;;;;;4975218;28;20035;-61
2023/03/26 05:11:01;;;;;;;6.13;3.65;;;;;;;;;;4975260;28;20034;-62
2023/03/26 05:13:32;;;;;;;4.25;2.67;;;;;;;;;;4975215;28;20019;-62
2023/03/26 05:16:03;;;;;;;3.35;2.92;;;;;;;;;;4959693;28;20039;-62
2023/03/26 05:18:54;;;;;;;3.42;3.13;;;;;;;;;;4973921;28;20035;-63
2023/03/26 05:21:21;;;;;;;3.65;2.55;;;;;;;;;;4975154;28;20126;-63
2023/03/26 05:23:46;;;;;;;3.88;2.85;;;;;;;;;;4959085;28;20122;-63
2023/03/26 05:26:21;;;;;;;3.33;2.90;;;;;;;;;;4974932;28;20554;-63
2023/03/26 05:28:47;;;;;;;3.40;3.03;;;;;;;;;;4974737;28;20109;-63
2023/03/26 05:31:20;;;;;;;3.20;2.88;;;;;;;;;;4974580;28;20022;-63
2023/03/26 05:33:47;;;;;;;3.45;2.72;;;;;;;;;;4974697;28;20475;-63
2023/03/26 05:36:14;;;;;;;3.33;2.17;;;;;;;;;;4975851;28;20035;-63
2023/03/26 05:38:48;;;;;;;3.10;2.42;;;;;;;;;;4974558;28;20034;-63
2023/03/26 05:41:19;;;;;;;4.07;2.13;;;;;;;;;;4974677;28;20395;-62
2023/03/26 05:43:47;;;;;;;3.42;2.85;;;;;;;;;;4974337;28;20458;-63
2023/03/26 05:46:16;;;;;;;2.47;2.10;;;;;;;;;;4974666;28;20019;-63
2023/03/26 05:48:42;;;;;;;1.73;1.63;;;;;;;;;;4974545;28;20395;-68
2023/03/26 05:51:14;;;;;;;3.13;2.10;;;;;;;;;;4973468;28;20418;-66
2023/03/26 05:53:45;;;;;;;2.63;2.10;;;;;;;;;;4973622;28;20039;-68
2023/03/26 05:56:21;;;;;;;4.32;2.40;;;;;;;;;;4975960;28;20129;-68
2023/03/26 05:59:05;;;;;;;3.13;2.10;;;;;;;;;;4975997;28;20134;-68
2023/03/26 06:01:53;;;;;;;3.85;2.47;;;;;;;;;;4976091;28;20445;-68
2023/03/26 06:04:44;;;;;;;2.30;2.10;;;;;;;;;;4975839;28;20043;-68
2023/03/26 06:07:48;;;;;;;2.17;1.83;;;;;;;;;;4968436;28;20129;-67
2023/03/26 06:10:17;;;;;;;2.50;1.85;;;;;;;;;;4974662;28;20057;-67
2023/03/26 06:12:43;;;;;;;4.38;2.15;;;;;;;;;;4974511;28;20044;-68
2023/03/26 06:15:08;;;;;;;3.90;2.60;;;;;;;;;;4973931;28;20037;-67
2023/03/26 06:17:43;;;;;;;2.83;1.70;;;;;;;;;;4975106;28;20057;-67
2023/03/26 06:20:32;;;;;;;3.58;2.08;;;;;;;;;;4974147;28;20077;-61
2023/03/26 06:23:01;;;;;;;2.47;1.98;;;;;;;;;;4972965;28;20038;-62
2023/03/26 06:25:44;;;;;;;2.80;2.08;;;;;;;;;;4974786;28;20027;-62
2023/03/26 06:28:20;;;;;;;2.83;1.70;;;;;;;;;;4973810;28;20423;-62
2023/03/26 06:30:58;;;;;;;1.85;1.75;;;;;;;;;;4976831;28;20381;-63
2023/03/26 06:33:33;;;;;;;1.88;1.60;;;;;;;;;;4977466;28;20434;-64
2023/03/26 06:35:59;;;;;;;2.53;1.80;;;;;;;;;;4976461;28;20065;-63
2023/03/26 06:38:24;;;;;;;1.83;1.60;;;;;;;;;;4977135;28;20042;-63
2023/03/26 06:41:03;;;;;;;3.00;1.52;;;;;;;;;;4977348;28;20110;-70
2023/03/26 06:43:47;;;;;;;2.67;1.80;;;;;;;;;;4994440;28;20401;-70
2023/03/26 06:46:31;;;;;;;1.70;1.38;;;;;;;;;;4994910;28;20049;-70
2023/03/26 06:49:15;;;;;;;1.75;1.65;;;;;;;;;;4994086;28;20485;-70
2023/03/26 06:51:52;;;;;;;1.75;1.40;;;;;;;;;;4978425;28;20049;-70
2023/03/26 06:54:41;;;;;;;1.98;1.67;;;;;;;;;;4993566;28;20173;-70
2023/03/26 06:57:31;;;;;;;1.50;1.38;;;;;;;;;;4993464;28;20026;-70
2023/03/26 07:00:26;;;;;;;1.38;1.17;;;;;;;;;;4941000;28;20048;-70
2023/03/26 07:03:10;;;;;;;1.65;1.45;;;;;;;;;;4993900;28;20041;-69
2023/03/26 07:05:54;;;;;;;1.83;1.55;;;;;;;;;;4988176;28;20118;-70
2023/03/26 07:08:54;;;;;;;2.05;1.58;;;;;;;;;;4959602;28;20105;-69
2023/03/26 07:11:34;;;;;;;1.83;1.63;;;;;;;;;;4993018;28;20058;-69
2023/03/26 07:14:20;;;;;;;2.25;1.50;;;;;;;;;;4963290;28;20037;-69
2023/03/26 07:17:00;;;;;;;;;;;;;;;;;;4983908;28;20026;-69
2023/03/26 07:19:35;;;;;;;2.85;1.38;;;;;;;;;;4989595;28;19914;-63
2023/03/26 07:22:01;;;;;;;1.70;1.27;;;;;;;;;;4992038;28;20064;-63
2023/03/26 07:24:46;;;;;;;1.80;1.20;;;;;;;;;;4993452;28;20041;-63
2023/03/26 07:27:46;;;;;;;1.50;1.00;;;;;;;;;;4976408;28;20042;-63
2023/03/26 07:30:39;;;;;;;1.75;1.48;;;;;;;;;;4974967;28;20482;-63
2023/03/26 07:33:35;;;;;;;2.25;1.40;;;;;;;;;;4975677;28;20493;-63
2023/03/26 07:36:20;;;;;;;2.67;1.30;;;;;;;;;;4992208;28;20138;-63
2023/03/26 07:39:12;;;;;;;1.80;1.02;;;;;;;;;;4976275;28;20516;-64
2023/03/26 07:42:14;;;;;;;2.67;1.10;;;;;;;;;;4992889;28;20057;-63
2023/03/26 07:45:08;;;;;;;1.92;1.10;;;;;;;;;;4993382;28;20378;-63
2023/03/26 07:47:55;;;;;;;4.82;1.52;;;;;;;;;;4982508;28;20125;-63
2023/03/26 07:50:24;;;;;;;;;;;;;;;;;;4976340;28;20026;-63
2023/03/26 07:53:13;;;;;;;2.33;1.50;;;;;;;;;;4978446;28;20424;-63
2023/03/26 07:55:58;;;;;;;2.75;1.35;;;;;;;;;;4975877;28;20119;-63
2023/03/26 07:58:39;;;;;;;1.58;1.15;;;;;;;;;;4978092;28;20038;-63
2023/03/26 08:01:47;;;;;;;1.55;1.45;;;;;;;;;;4979562;28;20038;-63
2023/03/26 08:04:23;;;;;;;2.60;1.55;;;;;;;;;;4992088;28;20501;-64
2023/03/26 08:07:06;;;;;;;3.03;1.48;;;;;;;;;;4980860;28;20443;-62
2023/03/26 08:10:20;;;;;;;1.85;1.20;;;;;;;;;;4997412;28;20057;-63
2023/03/26 08:13:01;;;;;;;2.15;1.25;;;;;;;;;;4996294;28;20026;-63
2023/03/26 08:15:37;;;;;;;1.83;1.25;;;;;;;;;;4995187;28;20045;-63
2023/03/26 08:18:26;;;;;;;1.27;1.17;;;;;;;;;;4994763;28;20050;-63
2023/03/26 08:20:57;;;;;;;1.75;1.58;;;;;;;;;;4978298;28;20054;-63
2023/03/26 08:23:33;;;;;;;2.75;1.25;;;;;;;;;;4977449;28;20039;-63
2023/03/26 08:26:05;;;;;;;1.40;1.25;;;;;;;;;;4960395;28;20118;-63
2023/03/26 08:28:49;;;;;;;2.33;1.42;;;;;;;;;;4976380;28;20543;-62
2023/03/26 08:31:16;;;;;;;2.10;1.13;;;;;;;;;;4977857;28;20078;-63
2023/03/26 08:33:42;;;;;;;2.03;1.45;;;;;;;;;;4977596;28;20042;-62
2023/03/26 08:36:08;;;;;;;2.85;1.42;;;;;;;;;;4975996;28;20482;-63
2023/03/26 08:38:33;;;;;;;2.05;1.70;;;;;;;;;;4977555;28;20039;-63
2023/03/26 08:41:15;;;;;;;3.50;1.13;;;;;;;;;;4987764;28;20101;-63
2023/03/26 08:44:01;;;;;;;4.05;2.00;;;;;;;;;;4996916;28;20033;-62
2023/03/26 08:46:32;;;;;;;3.88;2.03;;;;;;;;;;4991906;28;20062;-63
2023/03/26 08:49:24;;;;;;;1.58;1.40;;;;;;;;;;4997564;28;20026;-63
2023/03/26 08:52:04;;;;;;;2.03;1.23;;;;;;;;;;4997440;28;20039;-62
2023/03/26 08:54:30;;;;;;;;;;;;;;;;;;4998063;28;20489;-63
2023/03/26 08:57:10;;;;;;;2.53;0.97;;;;;;;;;;4997399;28;19910;-63
2023/03/26 08:59:36;;;;;;;3.33;1.85;;;;;;;;;;4997567;28;20383;-63
2023/03/26 09:02:10;;;;;;;1.17;0.88;;;;;;;;;;4996031;28;20032;-63
2023/03/26 09:04:39;;;;;;;1.52;1.23;;;;;;;;;;4995915;28;20392;-63
2023/03/26 09:07:08;;;;;;;1.52;1.33;;;;;;;;;;4997155;28;20044;-63
2023/03/26 09:09:49;;;;;;;2.23;1.40;;;;;;;;;;4994953;28;20117;-63
2023/03/26 09:12:33;;;;;;;2.25;1.23;;;;;;;;;;4995795;28;20033;-63
2023/03/26 09:15:05;;;;;;;1.80;1.42;;;;;;;;;;4993543;28;20030;-63
2023/03/26 09:17:42;;;;;;;3.13;1.77;;;;;;;;;;4994315;28;20478;-63
2023/03/26 09:20:18;;;;;;;1.63;0.85;;;;;;;;;;4977805;28;20363;-63
2023/03/26 09:23:03;;;;;;;1.13;1.02;;;;;;;;;;4977902;28;20291;-63
2023/03/26 09:25:29;;;;;;;1.60;1.10;;;;;;;;;;4993685;28;20226;-63
2023/03/26 09:28:00;;;;;;;1.75;1.40;;;;;;;;;;4995218;28;20133;-62
2023/03/26 09:30:29;;;;;;;1.23;1.00;;;;;;;;;;4995791;28;20433;-63
2023/03/26 09:33:13;;;;;;;1.25;1.00;;;;;;;;;;4996109;28;20474;-63
2023/03/26 09:35:53;;;;;;;2.17;1.23;;;;;;;;;;4979722;28;20041;-64
2023/03/26 09:38:19;;;;;;;;;;;;;;;;;;4997307;28;20112;-63
2023/03/26 09:40:54;;;;;;;2.85;1.23;;;;;;;;;;4995760;28;19956;-62
2023/03/26 09:43:32;;;;;;;1.75;1.20;;;;;;;;;;4994971;28;20081;-64
2023/03/26 09:46:22;;;;;;;1.25;0.80;;;;;;;;;;4995060;28;20409;-63
2023/03/26 09:48:57;;;;;;;1.45;1.10;;;;;;;;;;4995373;28;20022;-63
2023/03/26 09:51:34;;;;;;;1.65;1.08;;;;;;;;;;4996024;28;20054;-63
2023/03/26 09:54:09;;;;;;;2.00;0.80;;;;;;;;;;4996013;28;20046;-63
2023/03/26 09:56:53;;;;;;;2.78;1.30;;;;;;;;;;4994757;28;20045;-63
2023/03/26 09:59:37;;;;;;;1.48;0.93;;;;;;;;;;4995347;28;20026;-63
2023/03/26 10:02:08;;;;;;;2.17;1.45;;;;;;;;;;4994652;28;20401;-63
2023/03/26 10:04:46;;;;;;;0.45;0.40;;;;;;;;;;4994619;28;20034;-63
2023/03/26 10:07:30;;;;;;;1.92;0.90;;;;;;;;;;4994564;28;20031;-63
2023/03/26 10:09:59;;;;;;;1.77;0.80;;;;;;;;;;4994659;28;20030;-63
2023/03/26 10:12:33;;;;;;;0.85;0.60;;;;;;;;;;4996254;28;20046;-63
2023/03/26 10:15:11;;;;;;;1.00;0.90;;;;;;;;;;4996281;28;20042;-63
2023/03/26 10:17:41;;;;;;;0.50;0.50;;;;;;;;;;4995928;28;20026;-63
2023/03/26 10:20:27;;;;;;;0.88;0.60;;;;;;;;;;4978202;28;20026;-63
2023/03/26 10:23:03;;;;;;;0.40;0.30;;;;;;;;;;4994850;28;20034;-64
2023/03/26 10:25:29;;;;;;;1.02;0.47;;;;;;;;;;4995846;28;20061;-63
2023/03/26 10:28:13;;;;;;;0.40;0.40;;;;;;;;;;4995749;28;20458;-63
2023/03/26 10:31:04;;;;;;;1.15;0.40;;;;;;;;;;4994612;28;20084;-63
2023/03/26 10:33:49;;;;;;;1.98;0.70;;;;;;;;;;4995627;28;20113;-63
2023/03/26 10:36:14;;;;;;;0.60;0.60;;;;;;;;;;4995463;28;20093;-63
2023/03/26 10:38:53;;;;;;;0.90;0.57;;;;;;;;;;4993952;28;20038;-63
2023/03/26 10:41:21;;;;;;;0.70;0.55;;;;;;;;;;5000221;23;20129;-70
2023/03/26 10:43:59;;;;;;;1.10;0.63;;;;;;;;;;4976210;28;20122;-70
2023/03/26 10:46:28;;;;;;;1.02;0.70;;;;;;;;;;4975057;28;20031;-70
2023/03/26 10:49:19;;;;;;;1.35;0.75;;;;;;;;;;4974416;28;20073;-70
2023/03/26 10:52:19;;;;;;;3.47;1.48;;;;;;;;;;4990264;23;20122;-70
2023/03/26 10:54:52;;;;;;;4.55;1.88;;;;;;;;;;5001652;23;20074;-63
2023/03/26 10:57:17;;;;;;;3.13;1.65;;;;;;;;;;4995224;28;20030;-63
2023/03/26 10:59:43;;;;;;;3.63;2.08;;;;;;;;;;4995139;28;20369;-63
2023/03/26 11:02:38;;;;;;;5.47;2.65;;;;;;;;;;5013137;23;20054;-62
2023/03/26 11:05:22;;;;;;;2.20;2.00;;;;;;;;;;4992540;23;20050;-63
2023/03/26 11:08:03;;;;;;;2.38;1.52;;;;;;;;;;5009265;23;20137;-63
2023/03/26 11:10:28;;;;;;;;;;;;;;;;;;4977736;28;20018;-63
2023/03/26 11:12:59;;;;;;;2.60;2.00;;;;;;;;;;4994681;28;19932;-64
2023/03/26 11:15:34;;;;;;;2.67;1.88;;;;;;;;;;4994570;28;20316;-63
2023/03/26 11:18:06;;;;;;;2.85;2.08;;;;;;;;;;4994864;28;20038;-70
2023/03/26 11:20:49;;;;;;;3.78;2.60;;;;;;;;;;4994758;28;20030;-70
2023/03/26 11:23:14;;;;;;;2.45;1.98;;;;;;;;;;4994458;28;20057;-70
2023/03/26 11:25:59;;;;;;;1.63;1.52;;;;;;;;;;4977715;28;20466;-70
2023/03/26 11:28:25;;;;;;;2.13;1.88;;;;;;;;;;4960975;28;20394;-70
2023/03/26 11:30:56;;;;;;;2.10;1.80;;;;;;;;;;4976914;28;20027;-70
2023/03/26 11:33:25;;;;;;;1.88;1.50;;;;;;;;;;4976919;28;20034;-70
2023/03/26 11:35:51;;;;;;;2.53;1.70;;;;;;;;;;4994885;28;20034;-70
2023/03/26 11:38:20;;;;;;;2.00;1.88;;;;;;;;;;4994302;28;20117;-70
2023/03/26 11:40:49;;;;;;;2.08;1.38;;;;;;;;;;4993966;28;20043;-70
2023/03/26 11:43:30;;;;;;;2.15;1.50;;;;;;;;;;4994498;28;20057;-70
2023/03/26 11:45:55;;;;;;;1.80;1.23;;;;;;;;;;4977145;28;20026;-70
2023/03/26 11:48:40;;;;;;;2.00;1.33;;;;;;;;;;4994162;28;20106;-70
2023/03/26 11:51:07;;;;;;;1.40;1.30;;;;;;;;;;4994709;28;20058;-70
2023/03/26 11:53:33;;;;;;;1.90;1.23;;;;;;;;;;4994461;28;20085;-70
2023/03/26 11:56:04;;;;;;;2.92;1.80;;;;;;;;;;4994113;28;20038;-70
2023/03/26 11:58:49;;;;;;;1.92;1.75;;;;;;;;;;4994376;28;20033;-70
2023/03/26 12:01:21;;;;;;;4.18;2.15;;;;;;;;;;4960569;28;20038;-70
2023/03/26 12:03:57;;;;;;;4.10;2.47;;;;;;;;;;4993986;28;20042;-70
2023/03/26 12:06:27;;;;;;;3.42;1.95;;;;;;;;;;4994608;28;20034;-70
2023/03/26 12:08:53;;;;;;;2.65;1.80;;;;;;;;;;4976686;28;20092;-70
2023/03/26 12:11:21;;;;;;;2.63;1.85;;;;;;;;;;4993970;28;20034;-70
2023/03/26 12:13:51;;;;;;;4.28;1.52;;;;;;;;;;4976659;28;20045;-70
2023/03/26 12:16:17;;;;;;;2.22;1.60;;;;;;;;;;4976569;28;20026;-70
2023/03/26 12:18:44;;;;;;;1.90;1.40;;;;;;;;;;4976714;28;20089;-70
2023/03/26 12:21:14;;;;;;;0.80;0.73;;;;;;;;;;4976835;28;20459;-70
2023/03/26 12:23:58;;;;;;;3.20;1.38;;;;;;;;;;4993825;28;20026;-71
2023/03/26 12:26:45;;;;;;;1.40;1.30;;;;;;;;;;4994160;28;20026;-70
2023/03/26 12:29:11;;;;;;;0.82;0.82;;;;;;;;;;4976536;28;20109;-70
2023/03/26 12:31:44;;;;;;;2.00;1.13;;;;;;;;;;4993856;28;20110;-70
2023/03/26 12:34:14;;;;;;;2.33;1.40;;;;;;;;;;4994070;28;20069;-70
2023/03/26 12:36:47;;;;;;;1.58;1.40;;;;;;;;;;4976369;28;20478;-70
2023/03/26 12:39:25;;;;;;;1.83;1.42;;;;;;;;;;4994089;28;20078;-70
2023/03/26 12:41:55;;;;;;;2.28;1.80;;;;;;;;;;4993728;28;20068;-70
2023/03/26 12:44:21;;;;;;;1.63;1.50;;;;;;;;;;4993935;28;20019;-70
2023/03/26 12:46:47;;;;;;;3.40;1.40;;;;;;;;;;4976613;28;20377;-70
2023/03/26 12:49:12;;;;;;;3.17;1.73;;;;;;;;;;4976282;28;20046;-70
2023/03/26 12:51:48;;;;;;;1.35;1.23;;;;;;;;;;4993936;28;20034;-70
2023/03/26 12:54:14;;;;;;;1.92;1.30;;;;;;;;;;4997078;28;20049;-71
2023/03/26 12:57:06;;;;;;;1.63;1.08;;;;;;;;;;4997427;28;20022;-70
2023/03/26 13:00:08;;;;;;;2.47;1.25;;;;;;;;;;4979843;28;20117;-70
2023/03/26 13:02:52;;;;;;;1.40;1.10;;;;;;;;;;4971072;28;20038;-72
2023/03/26 13:07:46;;;;;;;1.92;0.82;;;;;;;;;;4992843;23;20062;-70
2023/03/26 13:10:21;;;;;;;2.88;1.55;;;;;;;;;;4996859;28;20110;-70
2023/03/26 13:13:01;;;;;;;1.23;1.13;;;;;;;;;;4997401;28;20045;-70
2023/03/26 13:15:31;;;;;;;1.10;1.00;;;;;;;;;;4996804;28;20035;-70
2023/03/26 13:18:10;;;;;;;1.15;1.05;;;;;;;;;;4996753;28;20033;-70
2023/03/26 13:20:47;;;;;;;0.77;0.77;;;;;;;;;;5004620;23;20071;-63
2023/03/26 13:23:29;;;;;;;1.00;0.90;;;;;;;;;;4977463;28;20034;-63
2023/03/26 13:25:54;;;;;;;1.73;1.02;;;;;;;;;;4977057;28;20430;-63
2023/03/26 13:28:25;;;;;;;3.33;1.45;;;;;;;;;;4977406;28;20030;-63
2023/03/26 13:31:06;;;;;;;1.67;1.38;;;;;;;;;;4976464;28;20031;-63
2023/03/26 13:33:39;;;;;;;2.85;1.33;;;;;;;;;;4976230;28;20035;-63
2023/03/26 13:36:11;;;;;;;1.10;1.00;;;;;;;;;;4977217;28;20085;-63
2023/03/26 13:38:39;;;;;;;1.20;1.10;;;;;;;;;;4977234;28;20474;-64
2023/03/26 13:41:11;;;;;;;1.13;1.00;;;;;;;;;;4977171;28;20432;-64
2023/03/26 13:43:56;;;;;;;1.13;1.00;;;;;;;;;;4976788;28;20039;-64
2023/03/26 13:46:31;;;;;;;1.55;1.00;;;;;;;;;;4976355;28;20505;-63
2023/03/26 13:49:02;;;;;;;1.95;1.00;;;;;;;;;;4960006;28;20368;-63
2023/03/26 13:51:46;;;;;;;1.55;1.20;;;;;;;;;;4977018;28;20049;-63
2023/03/26 13:54:23;;;;;;;1.95;1.52;;;;;;;;;;4976675;28;20163;-63
2023/03/26 13:56:51;;;;;;;3.53;1.52;;;;;;;;;;4976881;28;20042;-63
2023/03/26 13:59:19;;;;;;;1.17;1.08;;;;;;;;;;4976468;28;20534;-64
2023/03/26 14:01:55;;;;;;;2.58;1.40;;;;;;;;;;4975261;28;20035;-63
2023/03/26 14:04:20;;;;;;;1.00;0.90;;;;;;;;;;4976469;28;20118;-63
2023/03/26 14:06:56;;;;;;;1.38;1.00;;;;;;;;;;4975183;28;20059;-63
2023/03/26 14:09:28;;;;;;;1.88;1.42;;;;;;;;;;4975250;28;20031;-63
2023/03/26 14:11:56;;;;;;;0.90;0.80;;;;;;;;;;4975480;28;20109;-63
2023/03/26 14:14:42;;;;;;;0.65;0.60;;;;;;;;;;4976309;28;20019;-63
2023/03/26 14:17:22;;;;;;;2.30;0.95;;;;;;;;;;4976626;28;20031;-63
2023/03/26 14:20:04;;;;;;;1.45;0.95;;;;;;;;;;4980078;28;20054;-63
2023/03/26 14:22:29;;;;;;;;;;;;;;;;;;4996193;28;20445;-63
2023/03/26 14:25:07;;;;;;;1.90;1.13;;;;;;;;;;4995765;28;19914;-63
2023/03/26 14:27:51;;;;;;;2.38;1.20;;;;;;;;;;4996041;28;20030;-63
2023/03/26 14:30:19;;;;;;;1.90;1.15;;;;;;;;;;4995961;28;20042;-63
2023/03/26 14:32:48;;;;;;;1.98;1.35;;;;;;;;;;4977902;28;20081;-64
2023/03/26 14:35:33;;;;;;;1.33;1.20;;;;;;;;;;4995346;28;20054;-63
2023/03/26 14:38:05;;;;;;;2.22;1.15;;;;;;;;;;4995287;28;20026;-63
2023/03/26 14:40:34;;;;;;;1.90;1.30;;;;;;;;;;4977749;28;20034;-63
2023/03/26 14:43:03;;;;;;;1.77;1.23;;;;;;;;;;4994777;28;20077;-72
2023/03/26 14:45:28;;;;;;;2.03;1.17;;;;;;;;;;4993390;28;20042;-71
2023/03/26 14:48:17;;;;;;;1.90;0.90;;;;;;;;;;4976616;28;20085;-72
2023/03/26 14:50:53;;;;;;;1.35;1.13;;;;;;;;;;4994199;28;20031;-72
2023/03/26 14:53:28;;;;;;;2.22;1.00;;;;;;;;;;4977073;28;20062;-72
2023/03/26 14:55:59;;;;;;;1.52;0.85;;;;;;;;;;4994079;28;20038;-72
2023/03/26 14:58:43;;;;;;;3.08;0.90;;;;;;;;;;4993916;28;20046;-70
2023/03/26 15:01:16;;;;;;;1.85;1.15;;;;;;;;;;4993568;28;20034;-70
2023/03/26 15:04:00;;;;;;;1.42;1.17;;;;;;;;;;4976213;28;20042;-71
2023/03/26 15:06:28;;;;;;;1.90;1.40;;;;;;;;;;4993798;28;20034;-71
2023/03/26 15:08:57;;;;;;;2.15;1.77;;;;;;;;;;4976279;28;20010;-71
2023/03/26 15:11:41;;;;;;;2.75;1.90;;;;;;;;;;4993660;28;20045;-71
2023/03/26 15:14:26;;;;;;;5.97;2.55;;;;;;;;;;4993650;28;20524;-70
2023/03/26 15:17:08;;;;;;;4.85;2.30;;;;;;;;;;4972071;28;20441;-71
2023/03/26 15:19:52;;;;;;;2.53;1.77;;;;;;;;;;4993142;28;20433;-70
2023/03/26 15:22:17;;;;;;;2.95;1.35;;;;;;;;;;4993517;28;20045;-70
2023/03/26 15:25:03;;;;;;;1.92;1.50;;;;;;;;;;4992705;28;20390;-70
2023/03/26 15:27:28;;;;;;;1.50;1.40;;;;;;;;;;4993533;28;20035;-71
2023/03/26 15:29:56;;;;;;;1.88;1.60;;;;;;;;;;4976092;28;20076;-70
2023/03/26 15:32:29;;;;;;;2.50;1.70;;;;;;;;;;4993282;28;20026;-63